Ostrander, Minnesota
Current Conditions -  °F | °C
As of 8:16 AM on Saturday 22 Nov 2014 (Local Time) from KFKA Reporting Station
Moderate Fog Moderate Fog  
Wind Chill: 25°   Ceiling: 200
Heat Index: 33°   Visibility: 0mi
Dew Point: 32°   Wind: 10mph
Humidity: 98%   Direction: 190°S
Pressure: 29.82"   Gusts: NA
Location:  43.61°N, 92.43°W
Report Text: KFKA 221416Z AUTO 19009KT M1/4SM FG OVC002 01/00 A2982 RMK AO2 T00050002
Loading
Personal Weather Stations






























Interactive Weather Map New forecast layout! Learn more

10-Day Weather Forecast

Advertisements
Track Severe Weather on mobile